Time;durP1;ratioP1;P1;durP2;ratioP2;P2;SDS_P1;SDS_P2;PMS_P1;PMS_P2;Temp;Humidity;BMP_temperature;BMP_pressure;BME280_temperature;BME280_humidity;BME280_pressure;Samples;Min_cycle;Max_cycle;Signal;HPM_P1;HPM_P2
2022/07/04 00:02:14;;;;;;;4.03;1.67;;;;;;;16.68;66.34;102051.34;5097303;28;20038;-51
2022/07/04 00:04:39;;;;;;;5.13;1.60;;;;;;;16.61;66.25;102052.94;5099076;28;20545;-51
2022/07/04 00:07:05;;;;;;;4.65;1.98;;;;;;;16.56;66.75;102046.78;5099537;28;20042;-52
2022/07/04 00:09:30;;;;;;;4.13;1.73;;;;;;;16.61;66.42;102050.34;5096654;28;20193;-50
2022/07/04 00:11:55;;;;;;;6.22;1.60;;;;;;;16.57;66.89;102058.06;5093947;28;20020;-50
2022/07/04 00:14:21;;;;;;;4.70;1.65;;;;;;;16.56;67.45;102048.47;5098660;28;20042;-51
2022/07/04 00:16:46;;;;;;;3.40;1.80;;;;;;;16.65;66.84;102053.03;5098649;28;20028;-50
2022/07/04 00:19:11;;;;;;;5.30;1.70;;;;;;;16.59;66.55;102053.75;5097486;28;20024;-51
2022/07/04 00:21:37;;;;;;;4.95;1.73;;;;;;;16.53;66.58;102046.72;5097035;28;20102;-49
2022/07/04 00:24:02;;;;;;;3.45;1.65;;;;;;;16.53;66.92;102044.13;5098129;28;20818;-48
2022/07/04 00:26:28;;;;;;;5.60;2.25;;;;;;;16.52;67.14;102042.38;5098274;28;20032;-50
2022/07/04 00:28:53;;;;;;;3.33;1.88;;;;;;;16.45;66.69;102040.47;5096714;28;20035;-50
2022/07/04 00:31:19;;;;;;;3.47;1.65;;;;;;;16.46;67.26;102044.81;5100031;28;20030;-49
2022/07/04 00:33:44;;;;;;;3.63;1.80;;;;;;;16.38;67.46;102050.66;5099671;28;20641;-51
2022/07/04 00:36:10;;;;;;;4.20;1.80;;;;;;;16.39;67.36;102042.06;5098472;28;20024;-49
2022/07/04 00:38:35;;;;;;;2.95;1.52;;;;;;;16.39;67.60;102050.72;5099683;28;20036;-51
2022/07/04 00:41:00;;;;;;;4.28;1.52;;;;;;;16.28;67.48;102041.81;5100914;27;20031;-48
2022/07/04 00:43:27;;;;;;;3.95;1.65;;;;;;;16.17;67.57;102041.53;5102989;28;20027;-50
2022/07/04 00:45:53;;;;;;;3.25;1.50;;;;;;;16.20;67.89;102043.31;5080841;28;20483;-50
2022/07/04 00:48:18;;;;;;;3.30;1.73;;;;;;;16.07;67.96;102043.03;5102539;28;20043;-51
2022/07/04 00:50:47;;;;;;;3.47;1.58;;;;;;;16.13;68.21;102044.03;5101895;28;20035;-51
2022/07/04 00:53:21;;;;;;;4.43;1.70;;;;;;;16.16;68.04;102044.09;5100275;27;20122;-51
2022/07/04 00:55:47;;;;;;;4.22;1.70;;;;;;;16.06;68.26;102045.59;5104305;28;20023;-50
2022/07/04 00:58:13;;;;;;;5.53;1.50;;;;;;;15.95;68.19;102040.13;5103083;28;20085;-52
2022/07/04 01:00:38;;;;;;;2.97;1.67;;;;;;;15.91;68.31;102043.50;5100398;28;20495;-51
2022/07/04 01:03:04;;;;;;;5.00;1.70;;;;;;;15.86;68.58;102046.81;5102252;28;20388;-50
2022/07/04 01:05:29;;;;;;;4.32;1.73;;;;;;;15.83;68.59;102045.00;5101377;28;20024;-51
2022/07/04 01:07:54;;;;;;;6.38;2.00;;;;;;;15.74;68.99;102037.03;5080421;28;20035;-50
2022/07/04 01:10:20;;;;;;;4.43;2.10;;;;;;;15.84;68.98;102036.44;5101632;27;20019;-50
2022/07/04 01:12:45;;;;;;;6.60;2.33;;;;;;;15.77;69.11;102031.91;5082847;28;20062;-50
2022/07/04 01:15:10;;;;;;;8.57;2.33;;;;;;;15.82;69.15;102027.72;5101372;28;20404;-52
2022/07/04 01:17:36;;;;;;;4.10;2.20;;;;;;;15.84;69.16;102015.69;5100445;28;20024;-50
2022/07/04 01:20:02;;;;;;;4.10;2.05;;;;;;;15.78;68.75;102018.13;5101910;28;20062;-48
2022/07/04 01:22:28;;;;;;;4.90;2.45;;;;;;;15.68;68.92;102017.00;5101361;28;20036;-52
2022/07/04 01:24:53;;;;;;;5.72;2.67;;;;;;;15.58;69.21;102025.31;5101311;27;20092;-49
2022/07/04 01:27:19;;;;;;;6.45;2.60;;;;;;;15.60;69.57;102020.22;5099032;28;20522;-51
2022/07/04 01:29:44;;;;;;;5.32;2.75;;;;;;;15.61;69.21;102025.41;5100804;28;20105;-51
2022/07/04 01:32:10;;;;;;;3.45;2.30;;;;;;;15.59;69.33;102021.88;5083315;28;20407;-51
2022/07/04 01:34:36;;;;;;;4.97;2.60;;;;;;;15.52;69.73;102022.56;5102597;27;20047;-50
2022/07/04 01:37:02;;;;;;;4.18;2.60;;;;;;;15.50;69.64;102017.34;5100099;28;20059;-51
2022/07/04 01:39:29;;;;;;;4.38;2.53;;;;;;;15.61;69.15;102021.97;5100151;28;20027;-50
2022/07/04 01:41:54;;;;;;;3.75;2.80;;;;;;;15.49;70.12;102019.91;5100798;28;20095;-51
2022/07/04 01:44:20;;;;;;;6.28;3.00;;;;;;;15.52;69.35;102020.84;5082643;28;20126;-49
2022/07/04 01:46:45;;;;;;;4.65;2.40;;;;;;;15.56;69.16;102017.53;5098918;28;20408;-50
2022/07/04 01:49:11;;;;;;;5.05;2.50;;;;;;;15.55;69.11;102015.78;5100674;28;20035;-52
2022/07/04 01:51:44;;;;;;;4.43;2.80;;;;;;;15.52;69.50;102009.63;5078148;28;20051;-51
2022/07/04 01:54:09;;;;;;;4.35;2.60;;;;;;;15.39;70.21;102008.41;5100580;28;20036;-50
2022/07/04 01:56:34;;;;;;;4.03;3.05;;;;;;;15.52;69.49;102010.50;5101811;28;20088;-51
2022/07/04 01:59:01;;;;;;;8.43;3.13;;;;;;;15.53;69.29;102003.59;5101722;28;20502;-50
2022/07/04 02:01:29;;;;;;;7.97;3.05;;;;;;;15.38;69.58;102004.06;5103058;28;20105;-50
2022/07/04 02:03:59;;;;;;;8.27;3.70;;;;;;;15.37;69.70;102006.63;5103604;28;20467;-52
2022/07/04 02:06:24;;;;;;;;;;;;;;;15.65;67.71;102010.84;5101923;28;20038;-49
2022/07/04 02:13:00;;;;;;;4.38;3.00;;;;;;;15.30;70.10;102003.00;5100955;27;20097;-50
2022/07/04 02:14:19;;;;;;;3.88;3.00;;;;;;;15.33;69.87;102007.38;5101802;27;20043;-51
2022/07/04 02:16:45;;;;;;;5.13;3.20;;;;;;;15.20;70.26;101998.41;5101554;28;20089;-50
2022/07/04 02:19:10;;;;;;;5.18;3.05;;;;;;;15.20;70.03;101998.41;5101402;28;20119;-50
2022/07/04 02:21:36;;;;;;;4.90;3.00;;;;;;;15.13;70.55;101996.50;5102451;28;20453;-49
2022/07/04 02:24:01;;;;;;;5.28;3.20;;;;;;;15.11;70.57;101995.56;5097930;27;20035;-49
2022/07/04 02:26:27;;;;;;;5.53;3.08;;;;;;;15.18;70.50;101989.72;5101662;28;20023;-49
2022/07/04 02:28:52;;;;;;;4.85;2.85;;;;;;;15.19;70.28;101994.94;5102357;28;20142;-51
2022/07/04 02:31:18;;;;;;;5.90;3.42;;;;;;;15.20;70.31;102003.59;5102286;28;20023;-51
2022/07/04 02:33:43;;;;;;;7.30;2.88;;;;;;;15.17;70.14;102001.81;5101955;28;20127;-50
2022/07/04 02:36:09;;;;;;;3.50;2.72;;;;;;;15.14;70.24;102013.78;5101747;28;20094;-52
2022/07/04 02:38:34;;;;;;;6.38;3.33;;;;;;;15.02;70.52;102010.00;5086760;28;20035;-50
2022/07/04 02:40:59;;;;;;;3.38;2.58;;;;;;;15.03;70.59;102009.16;5101439;28;20039;-49
2022/07/04 02:43:25;;;;;;;4.80;3.38;;;;;;;15.08;70.38;102013.59;5100206;28;20102;-49
2022/07/04 02:45:50;;;;;;;5.50;3.05;;;;;;;15.09;70.54;102005.88;5101709;28;20032;-51
2022/07/04 02:48:15;;;;;;;4.97;3.15;;;;;;;15.03;70.89;102009.16;5102588;27;20030;-48
2022/07/04 02:50:41;;;;;;;3.65;2.95;;;;;;;14.95;70.81;102005.50;5100927;28;20034;-49
2022/07/04 02:53:06;;;;;;;5.32;3.08;;;;;;;14.95;70.52;102014.97;5100392;28;20535;-51
2022/07/04 02:55:31;;;;;;;3.65;2.60;;;;;;;14.91;71.03;102014.00;5099745;27;20027;-50
2022/07/04 02:57:57;;;;;;;6.65;2.90;;;;;;;14.87;71.01;102017.34;5098899;28;20032;-50
2022/07/04 03:00:22;;;;;;;4.07;2.70;;;;;;;14.91;70.74;102010.53;5098960;28;20040;-50
2022/07/04 03:02:47;;;;;;;4.00;2.67;;;;;;;14.88;70.48;102007.88;5102078;28;20032;-50
2022/07/04 03:05:13;;;;;;;6.18;2.92;;;;;;;14.78;70.75;102008.44;5102143;28;20032;-50
2022/07/04 03:07:38;;;;;;;4.97;3.28;;;;;;;14.77;71.09;102019.63;5097404;28;20062;-50
2022/07/04 03:10:04;;;;;;;6.82;2.90;;;;;;;14.73;71.25;102018.66;5101330;28;20032;-48
2022/07/04 03:12:29;;;;;;;5.85;2.97;;;;;;;14.70;71.29;102021.16;5103252;28;20030;-50
2022/07/04 03:14:55;;;;;;;6.03;2.90;;;;;;;14.71;71.21;102021.19;5101859;28;20034;-51
2022/07/04 03:17:20;;;;;;;6.30;3.20;;;;;;;14.63;71.56;102030.47;5099804;28;20031;-50
2022/07/04 03:19:46;;;;;;;4.85;3.58;;;;;;;14.60;71.57;102022.59;5084021;28;20043;-50
2022/07/04 03:22:12;;;;;;;5.78;3.22;;;;;;;14.66;71.81;102037.44;5099178;27;20031;-51
2022/07/04 03:24:37;;;;;;;7.80;3.30;;;;;;;14.66;71.56;102040.00;5099981;28;20134;-50
2022/07/04 03:27:03;;;;;;;6.30;3.13;;;;;;;14.72;71.74;102032.44;5102132;28;20364;-50
2022/07/04 03:29:28;;;;;;;9.50;3.00;;;;;;;14.76;71.27;102036.88;5098318;28;20501;-50
2022/07/04 03:31:53;;;;;;;5.40;3.20;;;;;;;14.80;71.53;102035.25;5100418;28;20081;-48
2022/07/04 03:34:19;;;;;;;4.30;3.13;;;;;;;14.77;71.42;102036.03;5099210;28;20115;-50
2022/07/04 03:36:44;;;;;;;4.32;3.13;;;;;;;14.80;71.33;102040.41;5098618;28;20036;-49
2022/07/04 03:39:10;;;;;;;6.20;3.47;;;;;;;14.76;71.50;102049.81;5102552;28;20105;-50
2022/07/04 03:41:36;;;;;;;7.82;3.45;;;;;;;14.73;71.27;102050.59;5101519;28;20024;-51
2022/07/04 03:44:01;;;;;;;4.75;3.20;;;;;;;14.81;71.03;102042.19;5100956;28;20565;-50
2022/07/04 03:46:27;;;;;;;5.22;2.90;;;;;;;14.67;71.26;102040.06;5100938;28;20028;-52
2022/07/04 03:48:53;;;;;;;5.57;3.22;;;;;;;14.68;71.57;102051.28;5100775;28;20542;-50
2022/07/04 03:51:18;;;;;;;5.45;3.22;;;;;;;14.73;71.79;102053.19;5102608;28;20019;-50
2022/07/04 03:53:44;;;;;;;8.45;2.92;;;;;;;14.70;71.57;102062.59;5096253;28;20043;-51
2022/07/04 03:56:09;;;;;;;5.70;2.90;;;;;;;14.74;71.66;102064.41;5101335;28;20035;-50
2022/07/04 03:58:35;;;;;;;5.32;3.00;;;;;;;14.75;71.63;102074.84;5101565;28;20020;-49
2022/07/04 04:01:01;;;;;;;6.68;3.30;;;;;;;14.75;71.92;102072.25;5101688;28;20483;-50
2022/07/04 04:06:10;;;;;;;8.63;3.53;;;;;;;14.75;71.64;102067.06;5098295;28;20132;-50
2022/07/04 04:08:36;;;;;;;5.55;3.30;;;;;;;14.68;71.78;102062.56;5099460;28;20031;-51
2022/07/04 04:11:01;;;;;;;5.35;3.63;;;;;;;14.69;72.29;102076.38;5104337;28;20032;-50
2022/07/04 04:13:26;;;;;;;7.57;3.38;;;;;;;14.68;72.78;102077.19;5104470;28;20114;-51
2022/07/04 04:15:52;;;;;;;6.15;3.10;;;;;;;14.68;72.71;102072.91;5100793;28;20027;-52
2022/07/04 04:18:17;;;;;;;6.20;2.92;;;;;;;14.70;72.79;102070.34;5087686;28;20112;-50
2022/07/04 04:20:42;;;;;;;6.63;3.42;;;;;;;14.72;73.26;102072.16;5101617;27;20055;-51
2022/07/04 04:23:08;;;;;;;7.93;3.80;;;;;;;14.73;72.71;102073.03;5104874;28;20419;-49
2022/07/04 04:25:33;;;;;;;10.70;3.65;;;;;;;14.75;73.20;102076.56;5106064;27;20047;-50
2022/07/04 04:27:59;;;;;;;7.15;3.40;;;;;;;14.77;73.34;102076.59;5102972;28;20046;-51
2022/07/04 04:30:24;;;;;;;8.18;3.42;;;;;;;14.82;73.91;102081.09;5102916;27;20107;-50
2022/07/04 04:32:49;;;;;;;7.90;3.45;;;;;;;14.83;74.30;102084.53;5101283;28;20035;-50
2022/07/04 04:35:15;;;;;;;9.38;3.83;;;;;;;14.87;73.99;102074.34;5105342;28;20036;-51
2022/07/04 04:37:40;;;;;;;9.30;3.75;;;;;;;14.87;73.91;102069.16;5104509;28;20027;-50
2022/07/04 04:40:06;;;;;;;6.00;3.65;;;;;;;14.87;74.16;102084.69;5103110;27;20084;-49
2022/07/04 04:42:31;;;;;;;6.97;3.58;;;;;;;14.84;74.20;102079.41;5085373;28;20031;-50
2022/07/04 04:44:57;;;;;;;6.97;3.72;;;;;;;14.91;74.50;102080.47;5102715;27;20149;-51
2022/07/04 04:47:22;;;;;;;10.38;3.97;;;;;;;14.91;74.84;102081.34;5102531;27;20184;-50
2022/07/04 04:49:48;;;;;;;7.43;3.70;;;;;;;14.91;75.03;102085.63;5101653;28;20039;-50
2022/07/04 04:52:13;;;;;;;9.38;3.90;;;;;;;14.89;75.00;102075.25;5101047;27;20487;-47
2022/07/04 04:54:39;;;;;;;10.43;4.00;;;;;;;14.95;75.27;102070.25;5102137;28;20028;-52
2022/07/04 04:57:04;;;;;;;7.07;4.40;;;;;;;15.03;75.50;102075.63;5100834;27;20166;-50
2022/07/04 04:59:31;;;;;;;7.72;3.92;;;;;;;15.07;75.04;102074.91;5100991;28;20042;-51
2022/07/04 05:01:57;;;;;;;9.13;4.10;;;;;;;15.10;75.00;102079.28;5102909;28;20539;-50
2022/07/04 05:04:22;;;;;;;7.70;4.03;;;;;;;15.12;75.68;102081.09;5099736;28;20035;-51
2022/07/04 05:06:48;;;;;;;9.50;4.05;;;;;;;15.20;75.52;102077.00;5102820;28;20035;-52
2022/07/04 05:09:13;;;;;;;10.20;4.35;;;;;;;15.19;76.09;102071.78;5103450;27;20403;-51
2022/07/04 05:11:39;;;;;;;9.15;4.57;;;;;;;15.24;76.06;102070.22;5104176;27;20740;-49
2022/07/04 05:14:05;;;;;;;10.00;4.78;;;;;;;15.31;76.14;102063.47;5101909;28;20039;-49
2022/07/04 05:16:30;;;;;;;9.15;4.43;;;;;;;15.36;75.95;102074.88;5102407;27;20031;-50
2022/07/04 05:18:56;;;;;;;9.70;4.43;;;;;;;15.39;76.26;102068.03;5103677;27;20076;-49
2022/07/04 05:21:21;;;;;;;9.48;4.50;;;;;;;15.49;75.83;102075.22;5104067;28;20078;-50
2022/07/04 05:23:47;;;;;;;9.02;4.32;;;;;;;15.51;75.83;102067.50;5102000;28;20027;-49
2022/07/04 05:26:12;;;;;;;6.43;4.05;;;;;;;15.58;75.71;102066.81;5102077;28;20639;-50
2022/07/04 05:28:37;;;;;;;12.30;4.15;;;;;;;15.62;75.82;102078.16;5103469;27;20596;-50
2022/07/04 09:26:18;;;;;;;4.22;1.20;;;;;;;21.90;56.20;102100.09;6086387;22;1318518;-68
2022/07/04 09:28:59;;;;;;;3.90;1.23;;;;;;;21.94;55.68;102088.78;6336269;22;20362;-67
2022/07/04 09:31:24;;;;;;;7.97;1.63;;;;;;;22.08;54.26;102086.16;6345019;22;20086;-67
2022/07/04 09:33:59;;;;;;;7.07;1.55;;;;;;;22.11;54.95;102087.06;6343993;22;20023;-68
2022/07/04 09:36:29;;;;;;;7.88;1.33;;;;;;;22.16;53.58;102089.69;6346078;22;20437;-68
2022/07/04 09:39:24;;;;;;;3.20;1.30;;;;;;;22.17;54.75;102086.19;6344869;22;20005;-68
2022/07/04 09:42:01;;;;;;;6.97;1.20;;;;;;;22.30;55.20;102081.81;6312793;22;20040;-67
2022/07/04 09:44:28;;;;;;;4.53;1.65;;;;;;;22.24;54.03;102081.81;6345884;22;20003;-67
2022/07/04 09:46:54;;;;;;;8.07;1.38;;;;;;;22.33;55.51;102090.56;6346268;22;20009;-68
2022/07/04 09:49:20;;;;;;;5.95;1.48;;;;;;;22.39;53.46;102084.44;6345171;22;20006;-67
2022/07/04 09:51:47;;;;;;;4.85;1.77;;;;;;;22.39;52.80;102081.81;6342147;22;20012;-68
2022/07/04 09:54:13;;;;;;;3.63;1.33;;;;;;;22.56;53.06;102080.00;6341245;22;20124;-68
2022/07/04 09:56:54;;;;;;;4.07;1.40;;;;;;;22.51;53.57;102083.50;6343723;22;20430;-69
2022/07/04 09:59:20;;;;;;;5.63;1.50;;;;;;;22.38;53.41;102086.16;6341493;22;20105;-68
2022/07/04 10:01:46;;;;;;;4.88;1.30;;;;;;;22.34;54.56;102091.41;6289818;22;20429;-68
2022/07/04 10:04:15;;;;;;;5.50;1.40;;;;;;;22.25;53.47;102081.81;6341794;22;19998;-68
2022/07/04 10:06:42;;;;;;;3.30;1.27;;;;;;;22.19;53.50;102087.91;6336249;22;20062;-68
2022/07/04 10:09:13;;;;;;;5.55;1.73;;;;;;;22.05;52.36;102083.53;6306815;22;20011;-69
2022/07/04 10:11:40;;;;;;;5.03;1.40;;;;;;;21.98;52.60;102085.28;6308858;22;20013;-69
2022/07/04 10:14:08;;;;;;;5.72;1.38;;;;;;;21.93;53.58;102087.91;6313524;22;20738;-69
2022/07/04 10:16:34;;;;;;;8.05;1.55;;;;;;;21.90;53.27;102069.59;6307386;22;20014;-69
2022/07/04 10:18:59;;;;;;;4.15;1.40;;;;;;;22.06;53.61;102074.81;6304490;22;20003;-69
2022/07/04 10:21:25;;;;;;;3.55;1.27;;;;;;;22.11;52.95;102075.72;6274561;22;20056;-69
2022/07/04 10:23:51;;;;;;;3.42;1.20;;;;;;;22.09;53.47;102072.19;6277231;22;20031;-69
2022/07/04 10:26:21;;;;;;;4.18;1.40;;;;;;;22.24;54.40;102073.97;6301752;22;20019;-68
2022/07/04 10:28:47;;;;;;;6.45;1.42;;;;;;;22.24;55.65;102068.72;6306351;22;20437;-68
2022/07/04 10:31:14;;;;;;;4.63;1.30;;;;;;;22.23;53.89;102069.59;6300640;22;20082;-67
2022/07/04 10:33:40;;;;;;;4.65;1.40;;;;;;;22.23;53.93;102073.09;6304970;22;20003;-66
2022/07/04 10:36:23;;;;;;;7.32;1.52;;;;;;;22.25;53.13;102071.31;6275460;22;20003;-67
2022/07/04 10:38:51;;;;;;;6.47;1.60;;;;;;;22.20;52.67;102058.25;6305839;22;20009;-66
2022/07/04 10:41:20;;;;;;;4.53;1.30;;;;;;;22.30;54.24;102058.22;6305479;22;20003;-64
2022/07/04 10:44:00;;;;;;;5.88;1.85;;;;;;;22.26;53.46;102062.59;6304195;22;20022;-67
2022/07/04 10:46:27;;;;;;;4.20;1.40;;;;;;;22.21;54.00;102061.75;6301660;22;20007;-66
2022/07/04 10:48:55;;;;;;;5.97;1.38;;;;;;;22.25;54.83;102057.34;6300681;22;20014;-67
2022/07/04 10:51:42;;;;;;;7.47;1.70;;;;;;;22.24;54.35;102053.88;6302386;22;20048;-66
2022/07/04 10:54:14;;;;;;;7.07;1.88;;;;;;;22.23;55.06;102061.75;6303192;22;20007;-70
2022/07/04 10:56:43;;;;;;;6.47;1.75;;;;;;;22.16;56.11;102059.13;6305790;22;20003;-69
2022/07/04 10:59:12;;;;;;;7.22;2.80;;;;;;;22.12;56.00;102059.13;6304221;22;20027;-68
2022/07/04 11:01:38;;;;;;;;;;;;;;;22.25;55.85;102055.59;6302621;22;20007;-67
2022/07/04 11:04:04;;;;;;;10.15;2.95;;;;;;;22.09;57.17;102053.88;6302011;22;19933;-68
2022/07/04 11:06:36;;;;;;;6.60;2.88;;;;;;;22.06;56.61;102056.47;6301820;22;19999;-66
2022/07/04 11:09:22;;;;;;;7.03;2.60;;;;;;;22.04;56.45;102056.47;6301715;22;20003;-67
2022/07/04 11:11:47;;;;;;;6.63;2.78;;;;;;;21.98;57.49;102060.84;6301192;22;20007;-68
2022/07/04 11:14:34;;;;;;;10.57;3.65;;;;;;;22.00;56.90;102064.34;6275258;22;20031;-68
2022/07/04 11:17:00;;;;;;;11.43;4.07;;;;;;;21.88;58.05;102060.84;6301969;22;20010;-69
2022/07/04 11:19:27;;;;;;;6.35;3.40;;;;;;;21.91;57.84;102058.22;6302481;22;20011;-67
2022/07/04 11:21:54;;;;;;;11.10;3.60;;;;;;;21.92;58.27;102052.13;6299832;22;20013;-68
2022/07/04 11:24:20;;;;;;;8.65;3.63;;;;;;;21.92;57.52;102054.72;6275098;22;20053;-68
2022/07/04 11:26:46;;;;;;;7.30;3.70;;;;;;;21.92;56.55;102057.34;6299668;22;20517;-69
2022/07/04 11:29:15;;;;;;;9.57;3.35;;;;;;;22.08;57.47;102060.81;6300103;22;20011;-66
2022/07/04 11:31:44;;;;;;;;;;;;;;;22.19;56.99;102055.63;6301132;22;20003;-67
2022/07/04 11:34:10;;;;;;;9.75;3.60;;;;;;;22.12;56.58;102049.50;6300260;22;19902;-67
2022/07/04 11:36:37;;;;;;;7.82;3.70;;;;;;;22.11;57.11;102046.91;6275786;22;20034;-67
2022/07/04 11:39:05;;;;;;;10.30;3.80;;;;;;;22.15;55.70;102048.66;6275339;22;20026;-68
2022/07/04 11:47:16;;;;;;;7.72;3.50;;;;;;;22.14;54.79;102037.28;6303577;22;20018;-68
2022/07/04 11:49:48;;;;;;;9.98;3.90;;;;;;;22.13;55.06;102042.53;6276909;22;20007;-68
2022/07/04 11:52:14;;;;;;;8.23;3.28;;;;;;;22.11;53.09;102039.03;6303653;22;20003;-66
2022/07/04 11:54:42;;;;;;;7.95;3.58;;;;;;;22.14;53.07;102037.28;6304144;22;20003;-67
2022/07/04 11:57:09;;;;;;;9.07;3.78;;;;;;;22.24;52.82;102037.28;6303211;22;20121;-67
2022/07/04 11:59:34;;;;;;;6.45;3.40;;;;;;;22.31;53.82;102034.63;6302767;22;20006;-67
2022/07/04 12:02:13;;;;;;;8.60;3.88;;;;;;;22.36;54.52;102030.25;6303213;22;20014;-67
2022/07/04 12:04:41;;;;;;;7.72;2.70;;;;;;;22.32;52.23;102022.41;6301585;22;20004;-67
2022/07/04 12:07:18;;;;;;;8.73;2.58;;;;;;;22.32;52.10;102020.66;6302006;22;20018;-70
2022/07/04 12:09:45;;;;;;;6.05;2.05;;;;;;;22.30;50.28;102027.66;6305557;22;20003;-69
2022/07/04 12:12:12;;;;;;;4.38;1.80;;;;;;;22.25;49.88;102029.41;6305739;22;20102;-70
2022/07/04 12:14:38;;;;;;;6.00;1.80;;;;;;;22.19;51.05;102029.41;6306855;22;20116;-69
2022/07/04 12:17:18;;;;;;;4.45;2.30;;;;;;;22.28;51.60;102024.19;6304993;22;20003;-69
2022/07/04 12:19:58;;;;;;;4.63;1.95;;;;;;;22.40;51.29;102012.78;6308002;22;20054;-68
2022/07/04 12:22:37;;;;;;;5.88;1.90;;;;;;;22.49;50.88;102012.75;6305699;22;20452;-69
2022/07/04 12:25:05;;;;;;;8.43;2.25;;;;;;;22.57;49.68;102016.25;6306517;22;20003;-69
2022/07/04 12:27:31;;;;;;;6.53;2.50;;;;;;;22.67;50.42;102019.69;6306611;22;20038;-69
2022/07/04 12:29:58;;;;;;;3.85;2.03;;;;;;;22.65;50.72;102024.94;6306219;22;20426;-70
2022/07/04 12:32:42;;;;;;;5.07;2.00;;;;;;;22.62;50.67;102018.81;6279167;22;20057;-70
2022/07/04 12:35:08;;;;;;;5.93;1.60;;;;;;;22.57;49.62;102013.63;6306566;22;20394;-69
2022/07/04 12:37:33;;;;;;;8.15;1.73;;;;;;;22.64;50.54;102015.34;6305701;22;20003;-69
2022/07/04 12:40:06;;;;;;;8.98;1.92;;;;;;;22.76;50.70;102011.81;6304639;22;20003;-69
2022/07/04 12:42:32;;;;;;;4.88;1.52;;;;;;;22.83;50.72;102007.41;6306199;22;19999;-69
2022/07/04 12:45:06;;;;;;;7.80;1.50;;;;;;;22.91;50.61;102009.13;6305218;22;20007;-69
2022/07/04 12:47:31;;;;;;;6.95;1.80;;;;;;;22.99;51.10;102006.47;6305238;22;20014;-69
2022/07/04 12:49:57;;;;;;;6.88;1.83;;;;;;;23.02;50.51;102002.06;6306439;22;20007;-69
2022/07/04 12:52:27;;;;;;;3.28;1.40;;;;;;;23.12;50.82;102004.66;6306471;22;20425;-69
2022/07/04 12:55:09;;;;;;;3.22;1.60;;;;;;;22.99;50.60;102007.34;6305638;22;20000;-69
2022/07/04 12:57:35;;;;;;;7.53;1.65;;;;;;;23.05;49.63;101995.06;6305933;22;20426;-69
2022/07/04 13:00:00;;;;;;;10.60;1.90;;;;;;;23.07;49.04;101998.56;6305806;22;20075;-69
2022/07/04 13:02:26;;;;;;;5.70;1.45;;;;;;;23.05;47.52;101998.56;6306057;22;20093;-69
2022/07/04 13:04:51;;;;;;;4.32;1.35;;;;;;;23.07;47.70;101990.69;6279252;22;20007;-69
2022/07/04 13:07:17;;;;;;;4.93;1.50;;;;;;;23.04;47.20;101988.06;6305548;22;20014;-70
2022/07/04 13:09:44;;;;;;;3.50;1.30;;;;;;;23.08;48.56;101988.06;6278855;22;20410;-70
2022/07/04 13:12:27;;;;;;;4.22;1.40;;;;;;;23.09;46.04;101989.78;6305856;22;20003;-70
2022/07/04 13:14:57;;;;;;;4.75;1.30;;;;;;;23.17;46.78;101992.38;6306222;22;20007;-71
2022/07/04 13:17:24;;;;;;;4.75;1.60;;;;;;;23.23;47.99;101992.31;6306073;22;20043;-70
2022/07/04 13:19:52;;;;;;;3.65;1.40;;;;;;;23.27;47.15;101988.81;6306157;22;20003;-70
2022/07/04 13:22:19;;;;;;;3.50;1.40;;;;;;;23.36;47.43;101990.50;6306181;22;19999;-70
2022/07/04 13:24:44;;;;;;;3.10;1.33;;;;;;;23.43;47.99;101981.72;6306415;22;20253;-70
2022/07/04 13:27:10;;;;;;;3.00;1.33;;;;;;;23.36;48.69;101988.75;6305839;22;20019;-70
2022/07/04 13:29:35;;;;;;;4.43;1.38;;;;;;;23.39;46.12;101993.97;6305819;22;20000;-70
2022/07/04 13:32:03;;;;;;;6.63;1.90;;;;;;;23.42;45.65;101990.44;6306747;22;20401;-70
2022/07/04 13:34:29;;;;;;;4.20;1.30;;;;;;;23.41;45.90;101984.31;6277981;22;19999;-71
2022/07/04 13:36:55;;;;;;;4.93;1.33;;;;;;;23.45;45.84;101982.56;6306769;22;20010;-69
2022/07/04 13:39:22;;;;;;;5.28;1.52;;;;;;;23.52;45.26;101987.75;6305803;22;20011;-69
2022/07/04 13:41:47;;;;;;;5.95;1.38;;;;;;;23.54;46.17;101987.75;6306464;22;20007;-69
2022/07/04 13:44:15;;;;;;;2.72;1.20;;;;;;;23.55;46.27;101989.50;6305747;22;20619;-69
2022/07/04 13:46:41;;;;;;;2.53;1.20;;;;;;;23.67;46.99;101994.69;6305635;22;20015;-69
2022/07/04 13:49:07;;;;;;;3.13;1.23;;;;;;;23.63;46.17;101987.69;6306413;22;20078;-69
2022/07/04 13:51:32;;;;;;;1.85;1.00;;;;;;;23.72;46.01;101990.25;6306267;22;20010;-69
2022/07/04 13:53:58;;;;;;;2.05;1.00;;;;;;;23.72;45.26;101990.25;6280016;22;20006;-70
2022/07/04 13:56:24;;;;;;;4.60;1.30;;;;;;;23.65;44.47;101995.56;6307820;22;20070;-71
2022/07/04 13:58:49;;;;;;;2.75;1.20;;;;;;;23.54;44.88;101977.25;6308022;22;20013;-69
2022/07/04 14:01:17;;;;;;;4.00;1.20;;;;;;;23.45;44.87;101978.19;6280950;22;20031;-71
2022/07/04 14:03:43;;;;;;;5.13;1.55;;;;;;;23.51;45.32;101977.25;6278908;22;20488;-70
2022/07/04 14:06:09;;;;;;;3.42;1.23;;;;;;;23.56;45.54;101978.09;6306200;22;19999;-70
2022/07/04 14:08:35;;;;;;;3.88;1.20;;;;;;;23.58;45.93;101983.34;6308522;22;20056;-70
2022/07/04 14:11:01;;;;;;;2.28;1.40;;;;;;;23.55;45.84;101985.09;6307488;22;20342;-69
2022/07/04 14:13:27;;;;;;;3.70;1.63;;;;;;;23.63;45.39;101981.56;6254774;22;20000;-69
2022/07/04 14:15:52;;;;;;;3.75;1.40;;;;;;;23.68;46.00;101985.03;6307862;22;20011;-70
2022/07/04 14:18:17;;;;;;;5.72;1.85;;;;;;;23.71;46.23;101979.75;6308787;22;20013;-70
2022/07/04 14:20:43;;;;;;;3.65;1.30;;;;;;;23.70;45.50;101978.00;6306957;22;20013;-70
2022/07/04 14:23:08;;;;;;;3.58;1.23;;;;;;;23.65;44.87;101980.66;6307772;22;20007;-70
2022/07/04 14:25:34;;;;;;;2.72;1.23;;;;;;;23.61;45.28;101981.56;6306942;22;20011;-69
2022/07/04 14:27:59;;;;;;;5.78;1.60;;;;;;;23.55;44.93;101979.84;6306065;22;20084;-69
2022/07/04 14:30:25;;;;;;;3.55;1.27;;;;;;;23.64;46.11;101978.06;6307351;22;20321;-69
2022/07/04 14:32:50;;;;;;;2.95;1.40;;;;;;;23.67;45.46;101975.44;6308029;22;20030;-70
2022/07/04 14:35:17;;;;;;;3.03;1.30;;;;;;;23.76;46.86;101985.84;6279323;22;20026;-69
2022/07/04 14:37:42;;;;;;;3.20;1.45;;;;;;;23.72;46.70;101981.47;6307249;22;20056;-70
2022/07/04 14:40:09;;;;;;;4.10;1.48;;;;;;;23.84;46.86;101986.63;6279110;22;20011;-70
2022/07/04 14:42:34;;;;;;;4.75;1.38;;;;;;;23.83;46.91;101979.63;6307350;22;19983;-70
2022/07/04 14:44:59;;;;;;;4.93;1.52;;;;;;;23.79;46.45;101977.94;6279714;22;20007;-70
2022/07/04 14:47:25;;;;;;;2.88;1.10;;;;;;;23.73;46.06;101981.50;6306429;22;20015;-70
2022/07/04 14:49:50;;;;;;;3.72;1.40;;;;;;;23.70;46.58;101972.75;6307475;22;20007;-70
2022/07/04 14:52:16;;;;;;;6.55;1.50;;;;;;;23.82;46.53;101977.91;6306549;22;20242;-70
2022/07/04 14:54:41;;;;;;;2.92;1.33;;;;;;;23.80;46.13;101970.03;6279753;22;20374;-69
2022/07/04 14:57:07;;;;;;;4.43;1.25;;;;;;;23.91;46.80;101971.72;6279258;22;20034;-69
2022/07/04 14:59:35;;;;;;;4.60;1.30;;;;;;;23.94;46.97;101966.41;6307132;22;20007;-69
2022/07/04 15:02:02;;;;;;;3.15;1.40;;;;;;;23.90;47.05;101965.56;6280307;22;20029;-69
2022/07/04 15:04:27;;;;;;;3.50;1.40;;;;;;;23.91;48.18;101969.09;6307243;22;20034;-70
2022/07/04 15:06:53;;;;;;;4.22;1.15;;;;;;;23.79;46.91;101959.56;6307106;22;20422;-70
2022/07/04 15:09:18;;;;;;;3.53;1.10;;;;;;;23.76;47.59;101963.06;6280660;22;20007;-70
2022/07/04 15:11:47;;;;;;;5.20;1.30;;;;;;;23.77;46.82;101964.81;6307138;22;20007;-70
2022/07/04 15:14:15;;;;;;;3.42;1.23;;;;;;;23.69;46.61;101965.78;6280677;22;20003;-68
2022/07/04 15:16:41;;;;;;;2.88;1.15;;;;;;;23.66;47.25;101963.16;6307164;22;20056;-69
2022/07/04 15:19:06;;;;;;;2.05;1.27;;;;;;;23.61;47.29;101967.56;6279509;22;20086;-70
2022/07/04 15:24:17;;;;;;;2.53;1.20;;;;;;;23.59;47.68;101957.06;6306546;22;20018;-70
2022/07/04 15:26:45;;;;;;;3.50;1.30;;;;;;;23.61;47.79;101955.31;6279263;22;20015;-70
2022/07/04 15:29:11;;;;;;;3.83;1.40;;;;;;;23.58;47.55;101957.06;6307790;22;20006;-70
2022/07/04 15:31:37;;;;;;;3.10;1.33;;;;;;;23.51;47.66;101946.63;6307163;22;20022;-69
2022/07/04 15:34:02;;;;;;;6.68;1.60;;;;;;;23.58;47.60;101947.44;6306451;22;20000;-70
2022/07/04 15:36:28;;;;;;;3.33;1.30;;;;;;;23.57;47.33;101950.97;6307017;22;20313;-70